Bloomington, NY (12411)

9:47 AM EST on February 10, 2016 (GMT -0500)
Susan Street | | Change Station
CLOSE
Current Station
Personal Weather Station
Location: Kingston, NY
Elevation: 295 ft
Nearby Weather Stations

Elev 295 ft 41.85 °N, 74.11 °W | Updated 13 minutes ago

Overcast
Overcast
39.2 °F
Feels Like 39 °F
N
0.0
Wind Variable Wind from NNW

Today
High -- | Low -- °F
--% Chance of Precip.
Yesterday
High -- | Low -- °F
Precip. -- in
Pressure 29.60 in
Visibility 3.0 miles
Clouds Mostly Cloudy 4800 ft
Overcast 5500 ft
Windchill 39 °F
Dew Point 34 °F
Humidity 80%
Rainfall 0.00 in
Snow Depth Not available.
6:59 AM 5:22 PM
Waxing Crescent, 5% visible
SPECI KPOU 101415Z 22004KT 3SM BKN048 OVC055 01/M02 A2960 RMK AO2 T00061017
Pressure 29.60 in
Visibility 3.0 miles
Clouds Mostly Cloudy 4800 ft
Overcast 5500 ft
Windchill 39 °F
Dew Point 34 °F
Humidity 80%
Rainfall 0.00 in
Snow Depth Not available.
6:59 AM 5:22 PM
Waxing Crescent, 5% visible
SPECI KPOU 101415Z 22004KT 3SM BKN048 OVC055 01/M02 A2960 RMK AO2 T00061017

10-Day Weather Forecast

Almanac

Astronomy

Feb. 10, 2016 Rise Set
Actual Time
Civil Twilight
Nautical Twilight
Astronomical Twilight
Moon
Length of Visible Light
Length of Day
Tomorrow will be .
, % of the Moon is Illuminated

Today's Extremes

State Highs State Lows

Community

WunderPhotos

Upload Photos

1,891,854 photos uploaded!

WunderBlog® & News

Nearby

Air Quality

  Air Quality AQ Index Pollutant
Not available.

Snow Depth

Station Depth Elevation

Earthquake Activity

City Distance Mag. Time & Date
Minimum magnitude displayed is 2.5.

Coastal Water Temperatures

Place Temperature

Stations

Nearby Weather Stations

Station Location Temp. Windchill Dew Point Humidity Wind Precip. Elev Updated Type
                   

Watches & Warnings

There are currently no watches in effect.